createdAt,value
2022-12-23T00:00:46.748Z,5.25
2022-12-23T00:03:39.267Z,5.40
2022-12-23T00:06:28.435Z,5.60
2022-12-23T00:09:17.231Z,4.60
2022-12-23T00:12:23.801Z,5.10
2022-12-23T00:15:13.708Z,5.15
2022-12-23T00:18:02.361Z,5.18
2022-12-23T00:21:04.784Z,4.88
2022-12-23T00:23:56.814Z,4.75
2022-12-23T00:26:45.428Z,4.93
2022-12-23T00:29:34.001Z,4.78
2022-12-23T00:32:22.603Z,4.65
2022-12-23T00:35:11.306Z,5.43
2022-12-23T00:38:01.265Z,4.13
2022-12-23T00:41:10.239Z,4.70
2022-12-23T00:43:59.044Z,5.25
2022-12-23T00:46:47.631Z,5.05
2022-12-23T00:49:53.057Z,3.90
2022-12-23T00:52:41.724Z,4.47
2022-12-23T00:55:31.848Z,4.78
2022-12-23T00:58:21.745Z,4.25
2022-12-23T01:01:28.051Z,3.85
2022-12-23T01:04:35.376Z,3.95
2022-12-23T01:07:24.502Z,3.95
2022-12-23T01:10:13.109Z,3.95
2022-12-23T01:13:03.279Z,3.58
2022-12-23T01:15:51.904Z,3.40
2022-12-23T01:18:40.952Z,3.40
2022-12-23T01:21:29.506Z,3.55
2022-12-23T01:24:18.182Z,3.47
2022-12-23T01:27:06.819Z,3.45
2022-12-23T01:29:56.830Z,3.72
2022-12-23T01:32:45.463Z,3.83
2022-12-23T01:35:34.127Z,3.13
2022-12-23T01:38:22.791Z,3.63
2022-12-23T01:41:33.285Z,3.38
2022-12-23T01:44:52.676Z,2.90
2022-12-23T01:47:46.621Z,3.05
2022-12-23T01:50:38.147Z,2.83
2022-12-23T01:53:28.797Z,2.78
2022-12-23T01:56:19.204Z,2.85
2022-12-23T01:59:11.016Z,2.95
2022-12-23T02:02:17.264Z,2.75
2022-12-23T02:05:07.902Z,2.70
2022-12-23T02:08:14.812Z,3.10
2022-12-23T02:11:29.568Z,2.92
2022-12-23T02:14:44.048Z,2.67
2022-12-23T02:17:37.542Z,2.60
2022-12-23T02:21:02.276Z,2.63
2022-12-23T02:24:24.902Z,2.78
2022-12-23T02:27:26.675Z,2.05
2022-12-23T02:30:31.831Z,1.92
2022-12-23T02:33:44.993Z,2.03
2022-12-23T02:36:40.036Z,2.05
2022-12-23T02:39:35.082Z,2.17
2022-12-23T02:42:25.937Z,2.13
2022-12-23T02:45:18.613Z,2.47
2022-12-23T02:48:10.909Z,1.67
2022-12-23T02:51:00.336Z,2.10
2022-12-23T02:53:51.441Z,2.30
2022-12-23T02:56:41.746Z,2.15
2022-12-23T02:59:37.383Z,2.00
2022-12-23T03:02:26.189Z,1.85
2022-12-23T03:05:30.697Z,1.52
2022-12-23T03:08:22.690Z,2.00
2022-12-23T03:11:13.201Z,2.22
2022-12-23T03:14:16.173Z,2.13
2022-12-23T03:17:14.454Z,2.33
2022-12-23T03:20:07.296Z,2.00
2022-12-23T03:23:03.252Z,1.67
2022-12-23T03:25:59.684Z,1.55
2022-12-23T03:28:52.276Z,1.60
2022-12-23T03:31:41.376Z,1.63
2022-12-23T03:34:33.730Z,1.52
2022-12-23T03:37:24.116Z,1.88
2022-12-23T03:40:19.335Z,1.80
2022-12-23T03:43:13.408Z,1.75
2022-12-23T03:46:04.850Z,1.25
2022-12-23T03:48:55.310Z,1.40
2022-12-23T03:51:47.794Z,1.38
2022-12-23T03:54:39.715Z,1.23
2022-12-23T03:57:33.291Z,1.33
2022-12-23T04:00:21.915Z,1.98
2022-12-23T04:03:17.681Z,1.30
2022-12-23T04:06:10.419Z,1.20
2022-12-23T04:08:59.145Z,1.17
2022-12-23T04:11:47.874Z,0.98
2022-12-23T04:14:37.959Z,0.90
2022-12-23T04:17:26.646Z,1.13
2022-12-23T04:20:15.565Z,1.20
2022-12-23T04:23:04.258Z,1.00
2022-12-23T04:25:52.922Z,1.20
2022-12-23T04:28:41.535Z,1.13
2022-12-23T04:31:31.534Z,1.30
2022-12-23T04:34:20.172Z,1.00
2022-12-23T04:37:08.783Z,1.25
2022-12-23T04:39:57.421Z,1.30
2022-12-23T04:42:46.037Z,1.17
2022-12-23T04:45:34.733Z,0.90
2022-12-23T04:48:24.726Z,0.95
2022-12-23T04:51:13.401Z,0.95
2022-12-23T04:54:02.060Z,0.82
2022-12-23T04:56:50.665Z,1.10
2022-12-23T04:59:39.280Z,0.73
2022-12-23T05:02:28.028Z,1.23
2022-12-23T05:05:18.175Z,1.25
2022-12-23T05:08:08.263Z,1.33
2022-12-23T05:10:56.919Z,1.20
2022-12-23T05:13:45.524Z,1.15
2022-12-23T05:16:34.374Z,1.00
2022-12-23T05:19:23.066Z,0.85
2022-12-23T05:22:13.044Z,0.98
2022-12-23T05:25:01.668Z,0.88
2022-12-23T05:27:50.297Z,0.75
2022-12-23T05:30:38.993Z,0.70
2022-12-23T05:33:27.865Z,0.60
2022-12-23T05:36:16.668Z,0.70
2022-12-23T05:39:07.172Z,0.82
2022-12-23T05:41:58.026Z,0.80
2022-12-23T05:44:46.609Z,0.70
2022-12-23T05:47:35.221Z,0.82
2022-12-23T05:50:23.907Z,0.70
2022-12-23T05:53:12.766Z,0.60
2022-12-23T05:56:05.591Z,0.77
2022-12-23T05:58:54.205Z,0.52
2022-12-23T06:01:42.963Z,0.45
2022-12-23T06:04:31.634Z,0.50
2022-12-23T06:07:21.440Z,0.68
2022-12-23T06:10:12.082Z,0.40
2022-12-23T06:13:02.196Z,0.45
2022-12-23T06:15:50.829Z,0.65
2022-12-23T06:18:39.546Z,0.60
2022-12-23T06:21:28.442Z,0.55
2022-12-23T06:24:17.036Z,0.40
2022-12-23T06:27:05.739Z,0.70
2022-12-23T06:29:56.132Z,0.55
2022-12-23T06:32:44.809Z,0.60
2022-12-23T06:35:33.397Z,0.50
2022-12-23T06:38:22.022Z,0.45
2022-12-23T06:41:10.635Z,0.57
2022-12-23T06:43:59.206Z,0.47
2022-12-23T06:46:49.128Z,0.60
2022-12-23T06:49:37.844Z,0.50
2022-12-23T06:52:26.477Z,0.60
2022-12-23T06:55:15.115Z,0.30
2022-12-23T06:58:03.795Z,0.50
2022-12-23T07:00:52.373Z,0.30
2022-12-23T07:03:42.525Z,0.40
2022-12-23T07:06:31.169Z,0.50
2022-12-23T07:09:20.002Z,0.50
2022-12-23T07:12:08.635Z,0.50
2022-12-23T07:14:57.271Z,0.60
2022-12-23T07:17:45.928Z,0.50
2022-12-23T07:20:35.898Z,0.40
2022-12-23T07:23:24.540Z,0.30
2022-12-23T07:26:13.149Z,0.30
2022-12-23T07:29:02.017Z,0.50
2022-12-23T07:31:50.686Z,0.40
2022-12-23T07:34:39.284Z,0.55
2022-12-23T07:37:29.330Z,0.40
2022-12-23T07:40:18.095Z,0.43
2022-12-23T07:43:06.772Z,0.30
2022-12-23T07:46:00.049Z,0.30
2022-12-23T07:48:49.549Z,0.40
2022-12-23T07:51:38.154Z,0.50
2022-12-23T07:54:28.153Z,0.30
2022-12-23T07:57:16.762Z,0.50
2022-12-23T08:00:07.097Z,0.40
2022-12-23T08:02:55.766Z,0.40
2022-12-23T08:05:44.446Z,0.30
2022-12-23T08:08:33.455Z,0.20
2022-12-23T08:11:23.412Z,0.40
2022-12-23T08:14:12.344Z,0.63
2022-12-23T08:17:00.989Z,0.30
2022-12-23T08:19:49.774Z,0.40
2022-12-23T08:22:38.485Z,0.40
2022-12-23T08:25:27.086Z,0.30
2022-12-23T08:28:17.144Z,0.65
2022-12-23T08:31:07.514Z,0.20
2022-12-23T08:33:58.538Z,0.32
2022-12-23T08:36:47.389Z,2.60
2022-12-23T08:39:36.061Z,1.63
2022-12-23T08:42:25.513Z,1.63
2022-12-23T08:45:16.112Z,1.00
2022-12-23T08:48:04.947Z,1.08
2022-12-23T08:50:53.605Z,0.63
2022-12-23T08:53:42.915Z,0.60
2022-12-23T08:56:33.967Z,0.75
2022-12-23T08:59:22.616Z,0.30
2022-12-23T09:02:13.394Z,0.50
2022-12-23T09:05:02.198Z,0.45
2022-12-23T09:07:51.141Z,0.30
2022-12-23T09:10:43.122Z,0.28
2022-12-23T09:13:35.589Z,0.38
2022-12-23T09:16:25.035Z,0.50
2022-12-23T09:19:15.149Z,0.65
2022-12-23T09:22:03.806Z,0.30
2022-12-23T09:24:52.261Z,0.43
2022-12-23T09:27:40.901Z,0.30
2022-12-23T09:30:29.631Z,0.32
2022-12-23T09:33:18.355Z,0.30
2022-12-23T09:36:09.165Z,0.50
2022-12-23T09:38:59.025Z,0.30
2022-12-23T09:41:57.126Z,0.82
2022-12-23T09:44:55.078Z,0.60
2022-12-23T09:48:26.861Z,0.57
2022-12-23T09:51:18.863Z,0.40
2022-12-23T09:54:16.808Z,0.38
2022-12-23T09:57:14.316Z,0.40
2022-12-23T10:00:09.564Z,0.40
2022-12-23T10:03:06.974Z,0.20
2022-12-23T10:06:03.029Z,0.32
2022-12-23T10:08:55.207Z,0.30
2022-12-23T10:11:46.226Z,0.30
2022-12-23T10:14:35.329Z,0.25
2022-12-23T10:17:29.226Z,0.20
2022-12-23T10:20:20.953Z,0.30
2022-12-23T10:23:15.593Z,0.00
2022-12-23T10:26:10.828Z,0.25
2022-12-23T10:29:03.709Z,0.20
2022-12-23T10:32:02.180Z,0.20
2022-12-23T10:34:54.593Z,0.28
2022-12-23T10:37:50.476Z,0.20
2022-12-23T10:40:46.026Z,0.10
2022-12-23T10:43:43.205Z,0.10
2022-12-23T10:46:38.705Z,0.20
2022-12-23T10:49:45.301Z,0.10
2022-12-23T10:52:36.944Z,0.10
2022-12-23T10:55:33.471Z,0.10
2022-12-23T10:58:22.915Z,0.10
2022-12-23T11:01:23.834Z,0.20
2022-12-23T11:04:16.160Z,0.20
2022-12-23T11:07:41.938Z,0.10
2022-12-23T11:10:18.263Z,0.10
2022-12-23T11:13:06.963Z,0.20
2022-12-23T11:15:57.069Z,0.20
2022-12-23T11:19:01.944Z,0.35
2022-12-23T11:21:56.371Z,0.20
2022-12-23T11:24:45.029Z,0.43
2022-12-23T11:27:33.670Z,0.10
2022-12-23T11:30:22.540Z,0.25
2022-12-23T11:33:20.408Z,0.10
2022-12-23T11:36:17.186Z,0.10
2022-12-23T11:39:24.689Z,0.22
2022-12-23T11:42:16.425Z,0.20
2022-12-23T11:45:08.956Z,0.20
2022-12-23T11:47:57.617Z,0.10
2022-12-23T11:50:46.339Z,0.10
2022-12-23T11:53:37.086Z,0.20
2022-12-23T11:56:27.724Z,0.28
2022-12-23T11:59:31.616Z,0.10
2022-12-23T12:02:22.202Z,0.30
2022-12-23T12:05:22.642Z,0.20
2022-12-23T12:08:13.125Z,0.10
2022-12-23T12:11:07.386Z,0.10
2022-12-23T12:14:00.496Z,0.20
2022-12-23T12:16:55.616Z,0.10
2022-12-23T12:19:52.271Z,0.10
2022-12-23T12:22:42.627Z,0.28
2022-12-23T12:25:40.001Z,0.30
2022-12-23T12:28:33.625Z,0.50
2022-12-23T12:31:26.200Z,0.20
2022-12-23T12:34:29.338Z,0.10
2022-12-23T12:37:23.912Z,0.25
2022-12-23T12:40:28.213Z,0.20
2022-12-23T12:43:22.469Z,0.22
2022-12-23T12:46:21.896Z,0.10
2022-12-23T12:49:16.543Z,0.20
2022-12-23T12:52:11.858Z,0.30
2022-12-23T12:55:05.941Z,0.40
2022-12-23T12:57:54.531Z,0.15
2022-12-23T13:00:48.564Z,0.20
2022-12-23T13:04:03.876Z,0.13
2022-12-23T13:06:58.137Z,0.30
2022-12-23T13:09:55.799Z,0.25
2022-12-23T13:12:54.432Z,0.30
2022-12-23T13:15:51.420Z,0.20
2022-12-23T13:18:46.657Z,0.20
2022-12-23T13:21:41.355Z,0.57
2022-12-23T13:24:36.137Z,0.20
2022-12-23T13:27:29.039Z,0.17
2022-12-23T13:30:20.083Z,0.35
2022-12-23T13:33:16.765Z,0.10
2022-12-23T13:36:14.906Z,0.40
2022-12-23T13:39:13.068Z,0.10
2022-12-23T13:42:06.096Z,0.10
2022-12-23T13:44:55.935Z,0.20
2022-12-23T13:47:51.045Z,0.30
2022-12-23T13:50:43.255Z,0.10
2022-12-23T13:53:47.721Z,0.20
2022-12-23T13:56:42.947Z,0.20
2022-12-23T13:59:40.259Z,0.30
2022-12-23T14:02:51.076Z,0.40
2022-12-23T14:05:40.973Z,0.35
2022-12-23T14:08:36.923Z,0.32
2022-12-23T14:11:27.067Z,0.35
2022-12-23T14:14:25.508Z,0.40
2022-12-23T14:17:19.849Z,0.28
2022-12-23T14:20:20.414Z,0.57
2022-12-23T14:23:21.421Z,0.30
2022-12-23T14:26:24.549Z,0.40
2022-12-23T14:29:29.662Z,0.70
2022-12-23T14:32:22.613Z,1.67
2022-12-23T14:35:26.534Z,0.60
2022-12-23T14:38:32.443Z,0.40
2022-12-23T14:41:26.386Z,0.35
2022-12-23T14:44:22.302Z,0.30
2022-12-23T14:50:37.537Z,0.47
2022-12-23T14:53:27.657Z,0.10
2022-12-23T14:56:24.123Z,0.50
2022-12-23T14:59:18.433Z,0.22
2022-12-23T15:02:19.436Z,0.45
2022-12-23T15:05:08.987Z,0.38
2022-12-23T15:07:59.475Z,0.20
2022-12-23T15:10:48.257Z,0.60
2022-12-23T15:13:36.949Z,0.43
2022-12-23T15:16:32.653Z,0.10
2022-12-23T15:19:23.087Z,0.52
2022-12-23T15:22:22.286Z,0.15
2022-12-23T15:25:24.486Z,0.32
2022-12-23T15:28:18.292Z,0.20
2022-12-23T15:31:07.884Z,0.20
2022-12-23T15:34:07.807Z,12.68
2022-12-23T15:36:59.325Z,8.75
2022-12-23T15:39:55.233Z,6.97
2022-12-23T15:42:50.538Z,10.85
2022-12-23T15:45:40.739Z,10.57
2022-12-23T15:48:30.970Z,11.05
2022-12-23T15:51:57.855Z,9.20
2022-12-23T15:54:36.757Z,9.02
2022-12-23T15:57:28.370Z,10.20
2022-12-23T16:00:23.231Z,8.68
2022-12-23T16:03:25.829Z,9.00
2022-12-23T16:06:20.257Z,8.43
2022-12-23T16:09:25.459Z,8.65
2022-12-23T16:12:23.836Z,9.18
2022-12-23T16:15:28.429Z,12.43
2022-12-23T16:18:23.199Z,14.40
2022-12-23T16:21:15.070Z,33.60
2022-12-23T16:24:07.207Z,25.63
2022-12-23T16:26:56.947Z,24.75
2022-12-23T16:29:47.832Z,24.55
2022-12-23T16:32:48.254Z,21.88
2022-12-23T16:35:39.008Z,19.88
2022-12-23T16:38:28.783Z,18.42
2022-12-23T16:41:17.505Z,16.95
2022-12-23T16:44:06.189Z,19.42
2022-12-23T16:46:54.849Z,17.38
2022-12-23T16:49:44.977Z,16.40
2022-12-23T16:52:33.736Z,16.95
2022-12-23T16:55:22.452Z,16.77
2022-12-23T16:58:11.289Z,16.00
2022-12-23T17:01:00.155Z,15.93
2022-12-23T17:03:48.932Z,15.40
2022-12-23T17:06:40.714Z,16.00
2022-12-23T17:09:30.578Z,13.65
2022-12-23T17:12:19.390Z,13.32
2022-12-23T17:15:10.022Z,12.25
2022-12-23T17:17:58.730Z,13.73
2022-12-23T17:20:48.285Z,11.80
2022-12-23T17:23:38.295Z,11.68
2022-12-23T17:26:26.884Z,12.68
2022-12-23T17:29:16.311Z,10.85
2022-12-23T17:32:05.169Z,10.77
2022-12-23T17:34:53.777Z,10.73
2022-12-23T17:37:42.429Z,10.70
2022-12-23T17:40:38.669Z,11.13
2022-12-23T17:43:27.467Z,10.90
2022-12-23T17:46:16.365Z,10.70
2022-12-23T17:49:05.099Z,9.65
2022-12-23T17:51:53.773Z,9.65
2022-12-23T17:54:42.483Z,9.00
2022-12-23T17:57:32.658Z,9.38
2022-12-23T18:00:29.925Z,8.57
2022-12-23T18:03:24.585Z,8.57
2022-12-23T18:06:15.119Z,8.95
2022-12-23T18:09:03.744Z,9.43
2022-12-23T18:11:52.398Z,9.07
2022-12-23T18:14:42.744Z,7.68
2022-12-23T18:17:31.395Z,8.30
2022-12-23T18:20:22.108Z,7.20
2022-12-23T18:23:14.443Z,7.93
2022-12-23T18:26:03.213Z,7.70
2022-12-23T18:28:54.099Z,7.03
2022-12-23T18:31:51.244Z,8.27
2022-12-23T18:34:40.622Z,6.88
2022-12-23T18:37:29.384Z,6.80
2022-12-23T18:40:18.069Z,6.40
2022-12-23T18:43:07.015Z,6.63
2022-12-23T18:45:55.782Z,7.47
2022-12-23T18:48:45.862Z,5.93
2022-12-23T18:51:34.534Z,7.10
2022-12-23T18:54:23.212Z,5.32
2022-12-23T18:57:12.303Z,5.82
2022-12-23T19:00:01.030Z,5.47
2022-12-23T19:02:50.371Z,6.03
2022-12-23T19:05:40.480Z,5.63
2022-12-23T19:08:29.096Z,6.28
2022-12-23T19:11:20.274Z,5.72
2022-12-23T19:14:08.916Z,5.43
2022-12-23T19:16:59.953Z,5.00
2022-12-23T19:19:48.555Z,5.10
2022-12-23T19:22:38.717Z,5.63
2022-12-23T19:25:27.324Z,4.57
2022-12-23T19:28:15.926Z,5.40
2022-12-23T19:31:08.975Z,6.28
2022-12-23T19:33:57.803Z,4.93
2022-12-23T19:36:46.522Z,4.30
2022-12-23T19:39:36.542Z,4.60
2022-12-23T19:42:25.278Z,4.80
2022-12-23T19:45:14.129Z,5.13
2022-12-23T19:48:02.822Z,4.35
2022-12-23T19:50:58.234Z,4.35
2022-12-23T19:53:47.429Z,3.95
2022-12-23T19:56:37.414Z,4.40
2022-12-23T19:59:26.225Z,4.00
2022-12-23T20:02:15.901Z,3.40
2022-12-23T20:05:04.688Z,4.18
2022-12-23T20:07:53.445Z,4.05
2022-12-23T20:10:42.051Z,3.90
2022-12-23T20:13:32.058Z,3.42
2022-12-23T20:16:21.421Z,4.18
2022-12-23T20:19:10.121Z,3.88
2022-12-23T20:21:58.939Z,4.22
2022-12-23T20:24:47.748Z,3.63
2022-12-23T20:27:37.952Z,3.75
2022-12-23T20:30:28.013Z,3.40
2022-12-23T20:33:16.970Z,3.70
2022-12-23T20:36:07.794Z,3.83
2022-12-23T20:38:56.947Z,4.13
2022-12-23T20:41:45.601Z,2.88
2022-12-23T20:44:35.977Z,2.88
2022-12-23T20:47:26.777Z,3.13
2022-12-23T20:50:15.682Z,3.15
2022-12-23T20:53:04.308Z,3.10
2022-12-23T20:55:52.953Z,2.60
2022-12-23T20:58:57.829Z,3.25
2022-12-23T21:01:46.610Z,2.85
2022-12-23T21:04:36.587Z,2.67
2022-12-23T21:07:26.264Z,2.70
2022-12-23T21:10:15.373Z,2.33
2022-12-23T21:13:04.237Z,2.35
2022-12-23T21:15:53.154Z,2.63
2022-12-23T21:18:42.596Z,2.65
2022-12-23T21:21:32.623Z,2.80
2022-12-23T21:24:22.013Z,2.45
2022-12-23T21:27:10.777Z,2.58
2022-12-23T21:29:59.431Z,2.17
2022-12-23T21:32:48.185Z,1.73
2022-12-23T21:35:36.997Z,2.35
2022-12-23T21:38:26.961Z,2.28
2022-12-23T21:41:17.140Z,2.10
2022-12-23T21:44:06.790Z,1.85
2022-12-23T21:46:55.397Z,1.83
2022-12-23T21:49:44.245Z,2.20
2022-12-23T21:52:33.191Z,2.10
2022-12-23T21:55:23.244Z,2.00
2022-12-23T21:58:11.844Z,1.90
2022-12-23T22:01:00.633Z,1.63
2022-12-23T22:03:50.974Z,1.80
2022-12-23T22:06:43.492Z,2.15
2022-12-23T22:09:32.706Z,1.98
2022-12-23T22:12:22.760Z,1.35
2022-12-23T22:15:12.201Z,1.70
2022-12-23T22:18:01.754Z,1.67
2022-12-23T22:20:50.344Z,1.75
2022-12-23T22:23:39.752Z,1.58
2022-12-23T22:26:29.291Z,1.85
2022-12-23T22:29:19.332Z,1.58
2022-12-23T22:32:08.009Z,1.70
2022-12-23T22:34:56.694Z,1.75
2022-12-23T22:37:45.287Z,1.63
2022-12-23T22:40:33.909Z,2.17
2022-12-23T22:43:22.624Z,1.85
2022-12-23T22:46:12.670Z,1.88
2022-12-23T22:49:01.448Z,1.17
2022-12-23T22:51:50.047Z,1.85
2022-12-23T22:54:38.637Z,1.80
2022-12-23T22:57:27.233Z,1.23
2022-12-23T23:00:16.335Z,1.48
2022-12-23T23:03:06.501Z,1.58
2022-12-23T23:05:59.726Z,1.30
2022-12-23T23:08:48.370Z,1.90
2022-12-23T23:11:37.386Z,1.42
2022-12-23T23:14:26.614Z,1.15
2022-12-23T23:17:15.350Z,1.20
2022-12-23T23:20:05.859Z,1.08
2022-12-23T23:22:54.588Z,1.38
2022-12-23T23:25:43.609Z,0.90
2022-12-23T23:28:32.369Z,1.33
2022-12-23T23:34:31.945Z,1.15
2022-12-23T23:37:22.306Z,1.08
2022-12-23T23:40:12.151Z,0.88
2022-12-23T23:43:01.243Z,1.02
2022-12-23T23:45:50.341Z,1.00
2022-12-23T23:48:39.019Z,1.10
2022-12-23T23:51:27.716Z,1.10
2022-12-23T23:54:17.791Z,1.27
2022-12-23T23:57:06.556Z,1.27
2022-12-23T23:59:55.198Z,1.05
